Time;durP1;ratioP1;P1;durP2;ratioP2;P2;SDS_P1;SDS_P2;PMS_P1;PMS_P2;Temp;Humidity;BMP_temperature;BMP_pressure;BME280_temperature;BME280_humidity;BME280_pressure;Samples;Min_cycle;Max_cycle;Signal;HPM_P1;HPM_P2
2022/08/01 00:02:43;;;;;;;7.17;3.47;;;23.50;69.20;;;;;;20996825;28;20219;-72
2022/08/01 00:12:46;;;;;;;4.47;2.87;;;23.60;69.20;;;;;;20996792;28;20203;-70
2022/08/01 00:22:48;;;;;;;4.60;3.00;;;23.60;69.10;;;;;;20995766;28;20211;-71
2022/08/01 00:32:50;;;;;;;3.27;2.70;;;23.60;69.20;;;;;;20995379;28;20261;-71
2022/08/01 00:42:52;;;;;;;4.33;2.90;;;23.50;69.60;;;;;;20995582;28;20237;-70
2022/08/01 00:52:55;;;;;;;4.37;2.77;;;23.30;70.20;;;;;;21002629;28;20243;-70
2022/08/01 01:02:57;;;;;;;3.77;3.00;;;23.30;71.00;;;;;;21010354;28;20203;-71
2022/08/01 01:13:10;;;;;;;4.50;2.80;;;23.20;71.80;;;;;;21009844;28;20594;-69
2022/08/01 01:23:23;;;;;;;3.57;2.90;;;23.10;72.20;;;;;;21008949;28;20217;-70
2022/08/01 01:33:28;;;;;;;4.80;3.23;;;22.90;73.20;;;;;;21008518;28;20227;-70
2022/08/01 01:43:31;;;;;;;3.80;3.20;;;22.80;74.40;;;;;;21007884;28;20238;-70
2022/08/01 01:53:35;;;;;;;4.83;3.20;;;22.60;75.50;;;;;;21006425;28;20243;-69
2022/08/01 02:03:41;;;;;;;4.77;3.30;;;22.50;76.40;;;;;;21004785;28;20210;-70
2022/08/01 02:13:44;;;;;;;5.70;3.50;;;22.40;77.30;;;;;;21010869;28;20261;-70
2022/08/01 02:23:47;;;;;;;5.13;2.83;;;22.40;78.30;;;;;;21004358;28;20210;-70
2022/08/01 02:34:05;;;;;;;5.90;3.00;;;22.20;79.10;;;;;;20985637;28;20238;-70
2022/08/01 02:44:09;;;;;;;3.77;2.80;;;22.20;79.60;;;;;;21003081;28;20321;-71
2022/08/01 02:54:11;;;;;;;5.40;3.07;;;22.10;80.40;;;;;;21001586;28;20710;-70
2022/08/01 03:04:17;;;;;;;3.70;3.23;;;22.00;81.30;;;;;;21000691;28;20208;-70
2022/08/01 03:14:21;;;;;;;4.57;3.57;;;21.80;82.20;;;;;;21000133;28;20238;-69
2022/08/01 03:24:26;;;;;;;4.07;3.20;;;21.70;83.20;;;;;;20998800;28;20256;-70
2022/08/01 03:34:29;;;;;;;5.40;3.27;;;21.70;83.80;;;;;;20999556;28;20256;-70
2022/08/01 03:44:35;;;;;;;7.50;3.37;;;21.80;84.40;;;;;;20998740;28;20207;-69
2022/08/01 03:54:43;;;;;;;3.10;2.80;;;21.80;84.90;;;;;;21000447;28;20237;-69
2022/08/01 04:04:45;;;;;;;3.43;2.83;;;21.70;85.50;;;;;;21022674;28;20680;-70
2022/08/01 04:14:48;;;;;;;3.27;2.40;;;21.70;86.10;;;;;;21009083;28;20242;-70
2022/08/01 04:24:54;;;;;;;5.33;3.63;;;21.60;86.60;;;;;;20994965;28;20276;-70
2022/08/01 04:34:59;;;;;;;6.17;3.13;;;21.60;87.90;;;;;;20993869;28;20273;-70
2022/08/01 04:45:01;;;;;;;7.47;2.60;;;21.60;88.70;;;;;;20995439;28;20585;-71
2022/08/01 04:55:05;;;;;;;3.63;2.30;;;21.60;89.10;;;;;;20995233;28;20238;-71
2022/08/01 05:05:08;;;;;;;7.27;2.43;;;21.70;89.30;;;;;;20994815;28;20210;-73
2022/08/01 05:15:10;;;;;;;4.97;2.40;;;21.90;89.50;;;;;;21001643;28;20590;-69
2022/08/01 05:25:16;;;;;;;3.57;2.10;;;22.10;89.70;;;;;;20993368;28;20257;-70
2022/08/01 05:35:21;;;;;;;5.60;2.10;;;22.20;89.70;;;;;;20996248;28;20250;-76
2022/08/01 05:45:22;;;;;;;6.27;2.10;;;22.30;89.70;;;;;;21006493;28;20228;-74
2022/08/01 05:55:24;;;;;;;5.13;1.80;;;22.50;89.70;;;;;;21007651;28;20239;-71
2022/08/01 06:05:26;;;;;;;9.13;2.17;;;22.60;89.20;;;;;;21006325;28;20213;-72
2022/08/01 06:15:31;;;;;;;6.57;2.10;;;22.80;89.00;;;;;;21004558;28;20231;-75
2022/08/01 06:25:33;;;;;;;5.67;1.87;;;22.80;89.20;;;;;;21005512;28;20207;-76
2022/08/01 06:35:35;;;;;;;4.53;2.17;;;22.90;89.20;;;;;;21003847;28;20981;-75
2022/08/01 06:45:40;;;;;;;7.60;2.20;;;22.90;89.00;;;;;;21002877;28;20238;-75
2022/08/01 06:55:42;;;;;;;8.13;2.30;;;23.00;89.50;;;;;;21001823;28;20234;-76
2022/08/01 07:05:44;;;;;;;7.80;2.40;;;23.10;89.50;;;;;;21000131;28;20202;-74
2022/08/01 07:15:46;;;;;;;6.07;2.30;;;23.20;88.80;;;;;;20998958;28;20243;-76
2022/08/01 07:25:52;;;;;;;6.67;2.63;;;23.40;88.50;;;;;;21000391;28;20715;-74
2022/08/01 07:35:58;;;;;;;3.83;2.50;;;23.60;87.40;;;;;;20995992;28;20747;-73
2022/08/01 07:46:00;;;;;;;5.40;2.50;;;23.80;86.60;;;;;;20997658;28;20736;-76
2022/08/01 07:56:04;;;;;;;3.37;2.50;;;23.50;86.20;;;;;;20998010;28;20237;-74
2022/08/01 08:06:06;;;;;;;4.37;2.60;;;23.60;85.60;;;;;;20998804;28;20214;-76
2022/08/01 08:16:08;;;;;;;5.10;2.20;;;23.70;84.90;;;;;;21002434;28;20240;-74
2022/08/01 08:26:12;;;;;;;3.43;2.33;;;23.90;84.40;;;;;;20996751;28;20210;-75
2022/08/01 08:36:14;;;;;;;3.13;2.20;;;23.90;83.80;;;;;;20995115;28;20231;-75
2022/08/01 08:46:19;;;;;;;2.83;2.20;;;24.20;82.10;;;;;;20994932;28;20318;-72
2022/08/01 08:56:33;;;;;;;9.53;2.40;;;24.20;80.80;;;;;;20994448;28;20550;-73
2022/08/01 09:06:35;;;;;;;2.27;2.03;;;24.20;79.90;;;;;;20998111;28;20637;-76
2022/08/01 09:16:42;;;;;;;4.93;2.00;;;24.30;79.50;;;;;;21011203;28;20694;-76
2022/08/01 09:26:50;;;;;;;4.33;1.80;;;24.50;80.10;;;;;;21024190;28;20659;-75
2022/08/01 09:36:56;;;;;;;2.83;1.87;;;24.50;79.10;;;;;;21019163;28;20660;-73
2022/08/01 09:46:59;;;;;;;3.87;1.80;;;24.60;79.10;;;;;;20987170;28;20326;-71
2022/08/01 09:57:18;;;;;;;3.40;1.70;;;24.90;77.80;;;;;;21006049;28;20540;-72
2022/08/01 10:07:20;;;;;;;1.63;1.53;;;24.90;77.30;;;;;;21007769;28;20203;-73
2022/08/01 10:17:49;;;;;;;1.77;1.50;;;25.30;76.40;;;;;;21024224;28;20241;-72
2022/08/01 10:28:01;;;;;;;1.90;1.70;;;25.40;74.40;;;;;;21024697;28;20639;-75
2022/08/01 10:38:03;;;;;;;1.70;1.60;;;25.40;74.20;;;;;;21005665;28;20635;-75
2022/08/01 10:48:29;;;;;;;3.13;1.70;;;25.30;72.80;;;;;;21001909;28;20285;-73
2022/08/01 10:58:40;;;;;;;1.90;1.70;;;25.60;72.40;;;;;;21000831;28;20273;-76
2022/08/01 11:08:52;;;;;;;2.00;1.80;;;26.00;70.70;;;;;;21000136;28;20269;-72
2022/08/01 11:18:54;;;;;;;3.53;1.50;;;26.10;68.90;;;;;;20999378;28;20234;-75
2022/08/01 11:29:14;;;;;;;2.73;1.80;;;26.10;68.00;;;;;;20999758;28;20207;-72
2022/08/01 11:39:22;;;;;;;1.80;1.70;;;26.50;66.60;;;;;;20998759;28;20742;-75
2022/08/01 11:49:36;;;;;;;2.20;2.00;;;26.40;64.30;;;;;;21034080;28;20318;-74
2022/08/01 11:59:41;;;;;;;4.53;1.80;;;26.40;63.80;;;;;;21039595;28;20569;-75
2022/08/01 12:10:08;;;;;;;2.10;1.40;;;26.70;64.20;;;;;;21029466;28;20606;-71
2022/08/01 12:20:13;;;;;;;4.40;1.93;;;27.30;62.00;;;;;;21035131;28;20238;-72
2022/08/01 12:30:17;;;;;;;5.07;2.20;;;27.60;61.40;;;;;;21032787;28;20559;-71
2022/08/01 12:40:20;;;;;;;2.57;1.70;;;27.50;61.00;;;;;;21033806;28;20242;-73
2022/08/01 12:50:25;;;;;;;2.00;1.70;;;27.00;60.30;;;;;;21059570;28;20235;-73
2022/08/01 13:00:26;;;;;;;4.67;2.60;;;27.00;59.80;;;;;;21057678;28;20314;-76
2022/08/01 13:10:30;;;;;;;4.33;2.30;;;26.80;60.30;;;;;;21027851;28;20664;-73
2022/08/01 13:20:33;;;;;;;3.63;1.97;;;26.70;60.70;;;;;;21010900;28;20235;-74
2022/08/01 13:30:35;;;;;;;2.63;1.97;;;26.60;60.90;;;;;;21009286;28;20207;-77
2022/08/01 13:40:37;;;;;;;3.73;2.13;;;26.60;60.20;;;;;;21007983;28;20235;-74
2022/08/01 13:50:39;;;;;;;2.37;2.10;;;26.70;60.40;;;;;;21006798;28;20237;-72
2022/08/01 14:00:41;;;;;;;5.63;3.50;;;26.70;60.50;;;;;;21006027;28;20242;-73
2022/08/01 14:10:44;;;;;;;4.17;3.40;;;26.90;59.90;;;;;;21009616;28;20207;-74
2022/08/01 14:20:46;;;;;;;4.50;2.30;;;27.20;58.80;;;;;;20993241;28;20239;-74
2022/08/01 14:30:51;;;;;;;2.57;2.00;;;27.30;58.70;;;;;;21004006;28;20203;-73
2022/08/01 14:40:53;;;;;;;2.90;1.90;;;27.50;57.50;;;;;;21003725;28;20231;-72
2022/08/01 14:50:55;;;;;;;2.27;2.00;;;27.60;56.00;;;;;;21001529;28;20231;-75
2022/08/01 15:00:56;;;;;;;1.70;1.60;;;27.60;54.90;;;;;;21001875;28;20238;-74
2022/08/01 15:11:01;;;;;;;2.87;1.90;;;27.70;51.50;;;;;;21001050;28;20211;-73
2022/08/01 15:21:03;;;;;;;2.07;1.87;;;28.00;52.40;;;;;;20999198;28;20280;-75
2022/08/01 15:31:04;;;;;;;3.43;1.77;;;28.00;53.60;;;;;;20998919;28;20222;-74
2022/08/01 15:41:06;;;;;;;2.10;1.90;;;27.90;53.30;;;;;;20998276;28;20261;-75
2022/08/01 15:51:08;;;;;;;2.77;2.40;;;27.80;53.00;;;;;;20997546;28;20245;-74
2022/08/01 16:01:10;;;;;;;4.43;2.10;;;27.60;52.70;;;;;;20996048;28;20254;-74
2022/08/01 16:11:12;;;;;;;2.87;2.57;;;27.60;53.10;;;;;;20995221;28;20203;-72
2022/08/01 16:21:14;;;;;;;6.40;3.60;;;27.70;53.40;;;;;;20993549;28;20237;-72
2022/08/01 16:31:16;;;;;;;6.33;4.27;;;27.60;53.60;;;;;;20995140;28;20207;-78
2022/08/01 16:41:23;;;;;;;4.37;3.40;;;27.60;53.70;;;;;;20995425;28;20231;-74
2022/08/01 16:51:26;;;;;;;5.33;2.90;;;27.50;53.60;;;;;;20995253;28;20231;-77
2022/08/01 17:01:28;;;;;;;5.13;3.07;;;27.50;53.90;;;;;;20994363;28;20234;-73
2022/08/01 17:11:50;;;;;;;6.67;4.50;;;27.50;54.00;;;;;;20994935;28;20556;-71
2022/08/01 17:21:51;;;;;;;3.40;3.07;;;27.50;53.90;;;;;;20993620;28;20231;-71
2022/08/01 17:31:53;;;;;;;5.07;3.63;;;27.40;54.10;;;;;;20996749;28;20207;-79
2022/08/01 17:41:55;;;;;;;7.90;3.27;;;27.20;54.30;;;;;;21008562;28;20241;-73
2022/08/01 17:51:57;;;;;;;3.77;2.90;;;27.10;54.50;;;;;;21007387;28;20231;-73
2022/08/01 18:01:59;;;;;;;4.27;3.67;;;26.90;54.80;;;;;;21006548;28;20242;-74
2022/08/01 18:12:01;;;;;;;3.33;3.03;;;26.80;55.30;;;;;;21006356;28;20211;-77
2022/08/01 18:22:11;;;;;;;3.10;2.80;;;26.60;55.50;;;;;;21004480;28;20239;-73
2022/08/01 18:32:33;;;;;;;3.33;2.80;;;26.40;56.00;;;;;;21004658;28;20199;-74
2022/08/01 18:42:35;;;;;;;8.97;4.80;;;26.40;57.00;;;;;;21002874;28;20395;-78
2022/08/01 18:52:36;;;;;;;4.13;2.47;;;26.20;57.80;;;;;;21004477;28;20231;-73
2022/08/01 19:02:40;;;;;;;3.00;2.30;;;26.20;58.40;;;;;;21002449;28;20327;-73
2022/08/01 19:12:42;;;;;;;5.23;2.33;;;26.10;59.10;;;;;;21002715;28;20214;-75
2022/08/01 19:22:46;;;;;;;5.70;2.50;;;25.90;60.00;;;;;;21002048;28;20267;-73
2022/08/01 19:32:50;;;;;;;4.20;2.80;;;25.80;60.90;;;;;;21000337;28;20682;-74
2022/08/01 19:42:53;;;;;;;4.00;3.37;;;25.70;61.50;;;;;;20999780;28;20239;-73
2022/08/01 19:52:56;;;;;;;7.57;2.90;;;25.60;62.20;;;;;;20928501;28;20235;-75
2022/08/01 20:02:59;;;;;;;6.03;2.57;;;25.50;63.60;;;;;;20915556;28;20235;-76
2022/08/01 20:13:01;;;;;;;5.50;2.80;;;25.40;63.80;;;;;;20865997;28;20446;-73
2022/08/01 20:23:09;;;;;;;5.47;3.33;;;25.70;64.50;;;;;;20831553;28;20240;-75
2022/08/01 20:33:11;;;;;;;4.30;3.07;;;25.20;65.20;;;;;;20903202;28;20232;-76
2022/08/01 20:43:14;;;;;;;6.10;3.60;;;25.00;65.20;;;;;;20912770;28;20326;-74
2022/08/01 20:53:17;;;;;;;4.13;3.27;;;24.90;65.80;;;;;;20912800;28;20358;-74
2022/08/01 21:03:24;;;;;;;4.30;3.17;;;24.70;66.60;;;;;;20911169;28;20236;-73
2022/08/01 21:13:46;;;;;;;3.83;3.30;;;24.50;67.30;;;;;;20925748;28;20211;-72
2022/08/01 21:23:59;;;;;;;5.87;4.13;;;24.20;68.20;;;;;;20909485;28;20630;-76
2022/08/01 21:34:06;;;;;;;3.57;3.27;;;24.00;69.00;;;;;;20925734;28;20576;-75
2022/08/01 21:44:13;;;;;;;3.57;3.27;;;23.80;69.30;;;;;;20928797;28;20236;-75
2022/08/01 21:54:53;;;;;;;5.57;3.50;;;23.90;69.00;;;;;;21005163;28;20239;-76
2022/08/01 22:05:07;;;;;;;4.87;3.40;;;23.80;69.30;;;;;;20998668;28;20211;-76
2022/08/01 22:15:10;;;;;;;4.43;3.43;;;23.60;70.20;;;;;;21005611;28;20234;-75
2022/08/01 22:25:13;;;;;;;7.30;3.50;;;23.60;71.00;;;;;;21001672;28;20207;-75
2022/08/01 22:35:16;;;;;;;4.50;3.17;;;23.50;71.60;;;;;;21004236;28;20241;-72
2022/08/01 22:45:40;;;;;;;4.10;2.80;;;23.40;71.80;;;;;;21003320;28;20265;-74
2022/08/01 22:55:48;;;;;;;4.40;2.97;;;23.40;72.10;;;;;;21002594;28;20254;-73
2022/08/01 23:06:02;;;;;;;5.63;3.57;;;23.30;72.50;;;;;;20994471;28;20215;-73
2022/08/01 23:16:06;;;;;;;3.90;3.00;;;23.30;72.90;;;;;;21000581;28;20714;-74
2022/08/01 23:26:09;;;;;;;9.87;3.37;;;23.20;73.40;;;;;;21000803;28;20203;-73
2022/08/01 23:36:16;;;;;;;3.10;2.80;;;23.20;73.90;;;;;;20998878;28;20687;-73
2022/08/01 23:46:18;;;;;;;5.10;3.40;;;23.00;74.30;;;;;;20999045;28;20237;-75
2022/08/01 23:56:20;;;;;;;10.23;3.63;;;22.90;75.20;;;;;;21006307;28;20231;-74
